Time;durP1;ratioP1;P1;durP2;ratioP2;P2;SDS_P1;SDS_P2;PMS_P1;PMS_P2;Temp;Humidity;BMP_temperature;BMP_pressure;BME280_temperature;BME280_humidity;BME280_pressure;Samples;Min_cycle;Max_cycle;Signal;HPM_P1;HPM_P2
2023/09/17 00:00:31;;;;;;;13.02;9.02;;;23.10;99.90;;;;;;5091703;28;20237;-73
2023/09/17 00:02:59;;;;;;;20.70;10.13;;;23.10;99.90;;;;;;5092138;28;20284;-73
2023/09/17 00:05:26;;;;;;;14.15;8.60;;;23.10;99.90;;;;;;5091415;28;20241;-73
2023/09/17 00:07:53;;;;;;;12.65;8.57;;;23.10;99.90;;;;;;5091855;28;20206;-73
2023/09/17 00:10:20;;;;;;;11.30;7.63;;;23.00;99.90;;;;;;5091797;28;20658;-72
2023/09/17 00:12:47;;;;;;;11.13;8.55;;;23.10;99.90;;;;;;5092642;28;20248;-71
2023/09/17 00:15:14;;;;;;;10.18;8.85;;;23.00;99.90;;;;;;5092101;28;20237;-72
2023/09/17 00:17:41;;;;;;;14.98;9.13;;;23.00;99.90;;;;;;5091333;28;20795;-72
2023/09/17 00:20:11;;;;;;;14.57;9.27;;;23.00;99.90;;;;;;5092031;28;20670;-72
2023/09/17 00:22:38;;;;;;;13.50;9.13;;;23.00;99.90;;;;;;5091552;28;20210;-72
2023/09/17 00:25:06;;;;;;;15.43;8.57;;;23.10;99.90;;;;;;5091885;28;20300;-72
2023/09/17 00:27:33;;;;;;;19.27;9.63;;;23.00;99.90;;;;;;5090304;28;20685;-74
2023/09/17 00:30:00;;;;;;;17.05;9.35;;;23.00;99.90;;;;;;5091562;28;20204;-75
2023/09/17 00:32:27;;;;;;;20.85;9.27;;;23.00;99.90;;;;;;5091174;28;20230;-75
2023/09/17 00:34:54;;;;;;;22.33;9.38;;;23.00;99.90;;;;;;5091837;28;20288;-74
2023/09/17 00:37:23;;;;;;;19.27;8.82;;;23.00;99.90;;;;;;5091388;28;20329;-73
2023/09/17 00:39:49;;;;;;;20.23;10.45;;;23.00;99.90;;;;;;5091607;28;20293;-76
2023/09/17 00:42:16;;;;;;;20.58;10.20;;;23.00;99.90;;;;;;5091501;28;20240;-75
2023/09/17 00:44:43;;;;;;;14.20;9.35;;;23.00;99.90;;;;;;5091289;28;20293;-74
2023/09/17 00:47:11;;;;;;;17.02;9.48;;;23.00;99.90;;;;;;5091373;28;20292;-75
2023/09/17 00:49:38;;;;;;;17.75;9.40;;;23.00;99.90;;;;;;5091003;28;20209;-74
2023/09/17 00:52:12;;;;;;;14.75;9.93;;;23.00;99.90;;;;;;5091452;28;20617;-74
2023/09/17 00:54:40;;;;;;;19.02;9.38;;;23.00;99.90;;;;;;5090571;28;20663;-74
2023/09/17 00:57:08;;;;;;;15.23;9.25;;;22.90;99.90;;;;;;5090844;28;20760;-74
2023/09/17 00:59:35;;;;;;;17.75;9.95;;;22.90;99.90;;;;;;5090733;28;20205;-73
2023/09/17 01:02:03;;;;;;;11.48;9.05;;;22.90;99.90;;;;;;5091391;28;20197;-73
2023/09/17 01:04:30;;;;;;;12.38;8.88;;;22.90;99.90;;;;;;5090762;28;20259;-77
2023/09/17 01:06:58;;;;;;;16.50;10.00;;;22.90;99.90;;;;;;5090948;28;20240;-77
2023/09/17 01:09:25;;;;;;;22.65;12.77;;;22.90;99.90;;;;;;5090777;28;20232;-73
2023/09/17 01:11:54;;;;;;;12.95;9.02;;;22.80;99.90;;;;;;5090797;28;20607;-76
2023/09/17 01:14:21;;;;;;;17.58;8.82;;;22.80;99.90;;;;;;5090610;28;20255;-73
2023/09/17 01:16:49;;;;;;;18.08;9.90;;;22.80;99.90;;;;;;5090999;28;20233;-72
2023/09/17 01:19:19;;;;;;;18.10;9.15;;;22.80;99.90;;;;;;5091181;28;20198;-72
2023/09/17 01:21:52;;;;;;;16.45;9.68;;;22.80;99.90;;;;;;5091236;28;20293;-73
2023/09/17 01:24:22;;;;;;;16.85;10.23;;;22.80;99.90;;;;;;5090866;28;20232;-73
2023/09/17 01:27:00;;;;;;;17.33;9.68;;;22.80;99.90;;;;;;5090473;28;20201;-72
2023/09/17 01:29:32;;;;;;;19.20;9.95;;;22.80;99.90;;;;;;5090308;28;20205;-72
2023/09/17 01:31:59;;;;;;;16.35;9.55;;;22.80;99.90;;;;;;5090868;28;20301;-72
2023/09/17 01:34:26;;;;;;;18.50;9.63;;;22.80;99.90;;;;;;5090543;28;20239;-73
2023/09/17 01:36:55;;;;;;;17.02;9.32;;;22.70;99.90;;;;;;5090635;28;20229;-72
2023/09/17 01:39:27;;;;;;;15.18;9.55;;;22.80;99.90;;;;;;5094532;28;20239;-72
2023/09/17 01:41:55;;;;;;;17.50;9.40;;;22.80;99.90;;;;;;5094422;28;20716;-72
2023/09/17 01:44:24;;;;;;;17.08;8.15;;;22.80;99.90;;;;;;5094357;28;20297;-73
2023/09/17 01:46:52;;;;;;;13.57;8.38;;;22.80;99.90;;;;;;5094876;28;20201;-73
2023/09/17 01:49:19;;;;;;;14.82;9.07;;;22.80;99.90;;;;;;5094652;28;20292;-73
2023/09/17 01:51:48;;;;;;;22.75;10.65;;;22.80;99.90;;;;;;5095279;28;20237;-73
2023/09/17 01:54:15;;;;;;;18.67;9.85;;;22.80;99.90;;;;;;5094951;28;20236;-74
2023/09/17 01:56:43;;;;;;;21.88;11.10;;;22.80;99.90;;;;;;5093902;28;20674;-73
2023/09/17 01:59:10;;;;;;;12.60;9.10;;;22.80;99.90;;;;;;5094675;28;20208;-73
2023/09/17 02:01:38;;;;;;;20.35;9.77;;;22.70;99.90;;;;;;5094188;28;20198;-74
2023/09/17 02:04:05;;;;;;;22.52;10.27;;;22.80;99.90;;;;;;5094249;28;20263;-74
2023/09/17 02:06:32;;;;;;;17.48;9.90;;;22.80;99.90;;;;;;5094252;28;20207;-74
2023/09/17 02:08:59;;;;;;;13.15;9.55;;;22.80;99.90;;;;;;5094325;28;20229;-74
2023/09/17 02:11:26;;;;;;;18.95;10.45;;;22.80;99.90;;;;;;5094033;28;20241;-73
2023/09/17 02:13:52;;;;;;;13.63;9.20;;;22.80;99.90;;;;;;5094324;28;20229;-73
2023/09/17 02:16:20;;;;;;;18.02;10.85;;;22.80;99.90;;;;;;5094179;28;20284;-73
2023/09/17 02:18:50;;;;;;;17.00;9.63;;;22.80;99.90;;;;;;5094569;28;20197;-73
2023/09/17 02:21:18;;;;;;;17.98;10.13;;;22.80;99.90;;;;;;5094479;28;20680;-73
2023/09/17 02:23:45;;;;;;;14.02;9.20;;;22.80;99.90;;;;;;5094070;28;20251;-74
2023/09/17 02:26:12;;;;;;;18.40;9.82;;;22.80;99.90;;;;;;5094210;28;20206;-74
2023/09/17 02:28:39;;;;;;;18.73;10.13;;;22.80;99.90;;;;;;5093645;28;20237;-75
2023/09/17 02:31:07;;;;;;;17.17;10.10;;;22.90;99.90;;;;;;5093811;28;20229;-75
2023/09/17 02:33:34;;;;;;;16.30;10.70;;;22.80;99.90;;;;;;5093839;28;20369;-75
2023/09/17 02:36:03;;;;;;;18.52;10.80;;;22.80;99.90;;;;;;5093752;28;20293;-75
2023/09/17 02:38:30;;;;;;;16.58;9.38;;;22.80;99.90;;;;;;5093388;28;20229;-72
2023/09/17 02:40:57;;;;;;;16.80;9.02;;;22.80;99.90;;;;;;5093810;28;20642;-73
2023/09/17 02:43:24;;;;;;;17.92;9.68;;;22.80;99.90;;;;;;5093053;28;20654;-73
2023/09/17 02:45:53;;;;;;;18.40;10.25;;;22.80;99.90;;;;;;5093549;28;20250;-73
2023/09/17 02:48:21;;;;;;;15.13;9.77;;;22.80;99.90;;;;;;5093388;28;20256;-73
2023/09/17 02:50:48;;;;;;;22.70;9.63;;;22.80;99.90;;;;;;5093138;28;20210;-72
2023/09/17 02:53:16;;;;;;;15.10;8.88;;;22.80;99.90;;;;;;5093603;28;20240;-72
2023/09/17 02:55:43;;;;;;;15.95;9.98;;;22.80;99.90;;;;;;5093442;28;20201;-72
2023/09/17 02:58:10;;;;;;;18.55;9.10;;;22.80;99.90;;;;;;5093374;28;20265;-73
2023/09/17 03:00:38;;;;;;;18.52;9.75;;;22.80;99.90;;;;;;5092959;28;20603;-73
2023/09/17 03:03:06;;;;;;;15.75;9.27;;;22.80;99.90;;;;;;5093463;28;20197;-73
2023/09/17 03:05:33;;;;;;;14.98;9.32;;;22.80;99.90;;;;;;5092667;28;20209;-72
2023/09/17 03:08:00;;;;;;;18.13;10.48;;;22.80;99.90;;;;;;5093252;28;20284;-73
2023/09/17 03:10:28;;;;;;;19.83;9.73;;;22.80;99.90;;;;;;5092764;28;20206;-73
2023/09/17 03:12:55;;;;;;;16.30;9.38;;;22.80;99.90;;;;;;5093164;28;20288;-73
2023/09/17 03:15:22;;;;;;;15.10;10.02;;;22.80;99.90;;;;;;5092743;28;20205;-72
2023/09/17 03:17:49;;;;;;;17.42;10.13;;;22.80;99.90;;;;;;5093089;28;20593;-72
2023/09/17 03:20:18;;;;;;;16.83;9.32;;;22.70;99.90;;;;;;5093495;28;20252;-71
2023/09/17 03:22:45;;;;;;;19.77;9.65;;;22.80;99.90;;;;;;5093087;28;20209;-71
2023/09/17 03:25:13;;;;;;;24.45;10.15;;;22.70;99.90;;;;;;5092910;28;20240;-71
2023/09/17 03:27:44;;;;;;;19.80;11.50;;;22.70;99.90;;;;;;5092752;28;20259;-71
2023/09/17 03:30:11;;;;;;;20.48;10.15;;;22.70;99.90;;;;;;5092801;28;20198;-73
2023/09/17 03:32:38;;;;;;;21.70;10.48;;;22.70;99.90;;;;;;5092581;28;20244;-73
2023/09/17 03:35:07;;;;;;;18.95;9.80;;;22.70;99.90;;;;;;5092870;28;20237;-73
2023/09/17 03:37:34;;;;;;;18.02;9.93;;;22.70;99.90;;;;;;5092009;28;20229;-74
2023/09/17 03:40:10;;;;;;;17.33;9.85;;;22.70;99.90;;;;;;5092613;28;20201;-74
2023/09/17 03:42:38;;;;;;;16.65;9.02;;;22.70;99.90;;;;;;5092253;28;20202;-73
2023/09/17 03:45:09;;;;;;;23.40;10.90;;;22.70;99.90;;;;;;5092737;28;20233;-73
2023/09/17 03:47:36;;;;;;;24.92;11.18;;;22.70;99.90;;;;;;5092118;28;20212;-73
2023/09/17 03:50:05;;;;;;;14.02;10.75;;;22.70;99.90;;;;;;5092398;28;20679;-74
2023/09/17 03:52:33;;;;;;;22.17;10.02;;;22.60;99.90;;;;;;5092009;28;20206;-74
2023/09/17 03:55:01;;;;;;;17.65;10.02;;;22.70;99.90;;;;;;5092457;28;20604;-74
2023/09/17 03:57:29;;;;;;;21.65;9.82;;;22.70;99.90;;;;;;5091799;28;20752;-74
2023/09/17 03:59:56;;;;;;;16.15;9.63;;;22.70;99.90;;;;;;5092181;28;20748;-74
2023/09/17 04:02:24;;;;;;;14.98;10.65;;;22.60;99.90;;;;;;5091742;28;20293;-71
2023/09/17 04:04:51;;;;;;;17.55;10.82;;;22.60;99.90;;;;;;5091756;28;20684;-73
2023/09/17 04:07:18;;;;;;;17.00;9.70;;;22.60;99.90;;;;;;5092015;28;20252;-72
2023/09/17 04:09:45;;;;;;;21.85;10.35;;;22.50;99.90;;;;;;5092637;28;20212;-73
2023/09/17 04:12:12;;;;;;;15.40;9.57;;;22.50;99.90;;;;;;5092002;28;20259;-72
2023/09/17 04:14:39;;;;;;;17.80;10.52;;;22.50;99.90;;;;;;5091627;28;20241;-73
2023/09/17 04:17:06;;;;;;;20.27;10.07;;;22.40;99.90;;;;;;5091942;28;20236;-72
2023/09/17 04:19:34;;;;;;;16.02;9.57;;;22.40;99.90;;;;;;5091076;28;20635;-72
2023/09/17 04:22:02;;;;;;;19.00;10.38;;;22.40;99.90;;;;;;5092034;28;20233;-72
2023/09/17 04:24:29;;;;;;;21.65;10.77;;;22.40;99.90;;;;;;5091533;28;20205;-72
2023/09/17 04:26:56;;;;;;;14.10;9.40;;;22.30;99.90;;;;;;5091862;28;20201;-72
2023/09/17 04:29:23;;;;;;;22.35;11.45;;;22.40;99.90;;;;;;5091313;28;20233;-72
2023/09/17 04:31:51;;;;;;;19.50;11.95;;;22.40;99.90;;;;;;5091496;28;20673;-72
2023/09/17 04:34:20;;;;;;;23.83;10.93;;;22.40;99.90;;;;;;5091950;28;20208;-73
2023/09/17 04:36:48;;;;;;;21.67;12.20;;;22.40;99.90;;;;;;5091842;28;20259;-72
2023/09/17 04:39:16;;;;;;;25.83;12.15;;;22.40;99.90;;;;;;5091841;28;20721;-72
2023/09/17 04:41:44;;;;;;;20.73;10.75;;;22.40;99.90;;;;;;5082374;28;20206;-71
2023/09/17 04:44:11;;;;;;;21.25;11.02;;;22.30;99.90;;;;;;5071084;28;20202;-71
2023/09/17 04:46:40;;;;;;;18.38;10.25;;;22.30;99.90;;;;;;5080815;28;20205;-72
2023/09/17 04:49:06;;;;;;;20.50;11.73;;;22.30;99.90;;;;;;5090963;28;20206;-72
2023/09/17 04:51:33;;;;;;;21.92;11.63;;;22.30;99.90;;;;;;5090830;28;20296;-72
2023/09/17 04:54:02;;;;;;;19.55;10.85;;;22.40;99.90;;;;;;5091290;28;20285;-72
2023/09/17 04:56:29;;;;;;;16.77;10.20;;;22.40;99.90;;;;;;5090541;28;20620;-72
2023/09/17 04:58:57;;;;;;;21.23;12.13;;;22.40;99.90;;;;;;5079186;28;20682;-72
2023/09/17 05:01:24;;;;;;;16.92;10.82;;;22.40;99.90;;;;;;5070688;28;20293;-72
2023/09/17 05:03:51;;;;;;;24.92;12.10;;;22.40;99.90;;;;;;5070398;28;20233;-72
2023/09/17 05:06:18;;;;;;;21.25;11.02;;;22.40;99.90;;;;;;5071326;28;20238;-72
2023/09/17 05:08:45;;;;;;;20.23;11.82;;;22.40;99.90;;;;;;5071195;28;20210;-72
2023/09/17 05:11:13;;;;;;;19.10;10.43;;;22.50;99.90;;;;;;5070816;28;20229;-71
2023/09/17 05:13:40;;;;;;;21.67;10.45;;;22.50;99.90;;;;;;5069623;28;20316;-71
2023/09/17 05:16:07;;;;;;;25.90;11.57;;;22.50;99.90;;;;;;5071025;28;20233;-72
2023/09/17 05:18:34;;;;;;;26.33;10.60;;;22.50;99.90;;;;;;5070207;28;20230;-72
2023/09/17 05:21:01;;;;;;;23.05;11.23;;;22.50;99.90;;;;;;5070938;28;20289;-72
2023/09/17 05:23:27;;;;;;;17.65;11.38;;;22.50;99.90;;;;;;5070384;28;20323;-72
2023/09/17 05:25:55;;;;;;;20.10;10.93;;;22.50;99.90;;;;;;5070304;28;20749;-72
2023/09/17 05:28:23;;;;;;;18.25;10.50;;;22.50;99.90;;;;;;5070265;28;20681;-73
2023/09/17 05:30:50;;;;;;;21.95;10.90;;;22.50;99.90;;;;;;5070622;28;20210;-73
2023/09/17 05:33:17;;;;;;;15.68;9.70;;;22.50;99.90;;;;;;5070681;28;20202;-73
2023/09/17 05:35:44;;;;;;;25.30;11.05;;;22.50;99.90;;;;;;5083873;28;20296;-73
2023/09/17 05:38:11;;;;;;;21.60;11.32;;;22.50;99.90;;;;;;5090779;28;20320;-73
2023/09/17 05:40:38;;;;;;;27.33;11.80;;;22.50;99.90;;;;;;5090333;28;20571;-72
2023/09/17 05:43:05;;;;;;;19.02;11.43;;;22.50;99.90;;;;;;5090617;28;20249;-72
2023/09/17 05:45:33;;;;;;;20.08;10.63;;;22.50;99.90;;;;;;5090377;28;20244;-73
2023/09/17 05:48:00;;;;;;;19.55;10.80;;;22.50;99.90;;;;;;5090327;28;20240;-73
2023/09/17 05:50:27;;;;;;;25.98;11.63;;;22.50;99.90;;;;;;5090053;28;20728;-73
2023/09/17 05:52:54;;;;;;;23.15;11.13;;;22.50;99.90;;;;;;5090271;28;20259;-73
2023/09/17 05:55:21;;;;;;;17.10;10.52;;;22.50;99.90;;;;;;5089845;28;20241;-73
2023/09/17 05:57:48;;;;;;;26.40;11.85;;;22.50;99.90;;;;;;5090554;28;20316;-74
2023/09/17 06:00:16;;;;;;;24.30;11.20;;;22.50;99.90;;;;;;5090533;28;20296;-73
2023/09/17 06:02:45;;;;;;;30.10;13.13;;;22.50;99.90;;;;;;5089135;28;20201;-75
2023/09/17 06:05:11;;;;;;;24.00;11.45;;;22.50;99.90;;;;;;5090149;28;20245;-76
2023/09/17 06:07:38;;;;;;;22.33;11.90;;;22.50;99.90;;;;;;5090194;28;20245;-74
2023/09/17 06:10:06;;;;;;;26.23;10.75;;;22.60;99.90;;;;;;5090430;28;20237;-74
2023/09/17 06:12:33;;;;;;;17.45;11.07;;;22.50;99.90;;;;;;5090036;28;20646;-75
2023/09/17 06:15:00;;;;;;;25.25;10.32;;;22.50;99.90;;;;;;5090665;28;20205;-75
2023/09/17 06:17:27;;;;;;;21.75;10.68;;;22.60;99.90;;;;;;5089948;28;20289;-74
2023/09/17 06:19:55;;;;;;;17.92;11.10;;;22.60;99.90;;;;;;5090442;28;20237;-75
2023/09/17 06:22:22;;;;;;;20.88;11.05;;;22.60;99.90;;;;;;5089879;28;20209;-74
2023/09/17 06:24:50;;;;;;;19.30;10.77;;;22.60;99.90;;;;;;5091735;28;20227;-74
2023/09/17 06:27:17;;;;;;;29.70;12.30;;;22.60;99.90;;;;;;5094291;28;20670;-74
2023/09/17 06:29:43;;;;;;;18.42;10.80;;;22.60;99.90;;;;;;5093866;28;20677;-74
2023/09/17 06:32:11;;;;;;;19.27;10.73;;;22.70;99.90;;;;;;5093686;28;20292;-74
2023/09/17 06:34:39;;;;;;;25.95;11.07;;;22.70;99.90;;;;;;5093596;28;20270;-74
2023/09/17 06:37:07;;;;;;;22.33;11.02;;;22.60;99.90;;;;;;5093830;28;20740;-74
2023/09/17 06:39:35;;;;;;;23.95;11.23;;;22.60;99.90;;;;;;5093487;28;20320;-73
2023/09/17 06:42:02;;;;;;;20.80;9.68;;;22.70;99.90;;;;;;5093805;28;20297;-72
2023/09/17 06:44:29;;;;;;;17.65;10.23;;;22.90;99.90;;;;;;5093247;28;20232;-71
2023/09/17 06:46:56;;;;;;;22.17;10.38;;;23.00;99.90;;;;;;5093562;28;20244;-71
2023/09/17 06:49:23;;;;;;;20.35;10.30;;;23.20;99.90;;;;;;5093252;28;20649;-70
2023/09/17 06:51:52;;;;;;;29.77;9.88;;;23.30;99.90;;;;;;5093492;28;20270;-73
2023/09/17 06:54:20;;;;;;;28.42;10.75;;;23.20;99.90;;;;;;5093496;28;20201;-73
2023/09/17 06:56:47;;;;;;;24.02;11.38;;;23.30;99.90;;;;;;5093906;28;20205;-73
2023/09/17 06:59:14;;;;;;;19.35;10.30;;;23.40;99.90;;;;;;5093515;28;20261;-73
2023/09/17 07:01:41;;;;;;;21.15;10.65;;;23.40;99.90;;;;;;5088093;28;20210;-73
2023/09/17 07:04:08;;;;;;;22.95;10.50;;;23.40;99.90;;;;;;5079230;28;20284;-75
2023/09/17 07:06:35;;;;;;;20.73;9.77;;;23.40;99.90;;;;;;5084062;28;20267;-71
2023/09/17 07:09:03;;;;;;;20.60;10.40;;;23.40;99.90;;;;;;5083025;28;20210;-72
2023/09/17 07:11:31;;;;;;;20.13;11.07;;;23.50;99.90;;;;;;5072699;28;20210;-72
2023/09/17 07:13:58;;;;;;;20.63;11.30;;;23.70;99.90;;;;;;5073559;28;20298;-73
2023/09/17 07:16:25;;;;;;;21.80;10.77;;;23.70;99.90;;;;;;5073828;28;20203;-73
2023/09/17 07:18:52;;;;;;;20.30;9.75;;;23.90;99.90;;;;;;5072652;28;20687;-72
2023/09/17 07:21:20;;;;;;;26.08;9.90;;;24.00;99.90;;;;;;5072788;28;20568;-71
2023/09/17 07:23:50;;;;;;;18.75;10.95;;;24.20;99.90;;;;;;5073063;28;20206;-72
2023/09/17 07:26:19;;;;;;;23.60;10.23;;;24.40;99.90;;;;;;5071043;28;20206;-73
2023/09/17 07:28:48;;;;;;;22.73;9.43;;;24.20;99.90;;;;;;5071209;28;20291;-73
2023/09/17 07:31:15;;;;;;;24.40;9.85;;;24.10;99.90;;;;;;5072467;28;20301;-73
2023/09/17 07:33:44;;;;;;;23.33;10.63;;;24.10;99.90;;;;;;5075337;28;20301;-73
2023/09/17 07:36:11;;;;;;;21.25;9.70;;;24.10;99.90;;;;;;5075956;28;20672;-75
2023/09/17 07:38:38;;;;;;;18.52;10.70;;;24.10;99.90;;;;;;5087438;28;20786;-75
2023/09/17 07:41:05;;;;;;;31.95;12.60;;;24.20;99.90;;;;;;5088844;28;20708;-73
2023/09/17 07:43:32;;;;;;;20.20;9.55;;;24.30;99.90;;;;;;5091450;28;20247;-74
2023/09/17 07:46:00;;;;;;;20.02;9.38;;;24.40;99.90;;;;;;5086617;28;20242;-76
2023/09/17 07:48:29;;;;;;;25.92;9.52;;;24.50;99.90;;;;;;5081482;28;20245;-75
2023/09/17 07:50:56;;;;;;;24.10;10.23;;;24.50;99.90;;;;;;5092445;28;20235;-77
2023/09/17 07:53:24;;;;;;;23.50;10.32;;;24.50;99.90;;;;;;5074062;28;20210;-76
2023/09/17 07:55:51;;;;;;;25.48;9.63;;;24.80;99.90;;;;;;5071604;28;20208;-77
2023/09/17 07:58:18;;;;;;;24.30;9.32;;;25.30;99.90;;;;;;5071680;28;20234;-75
2023/09/17 08:00:45;;;;;;;18.17;9.82;;;25.60;99.90;;;;;;5088499;28;20217;-73
2023/09/17 08:03:14;;;;;;;18.48;9.20;;;25.60;99.90;;;;;;5091804;28;20236;-72
2023/09/17 08:05:41;;;;;;;25.25;9.63;;;25.40;99.90;;;;;;5091481;28;20202;-73
2023/09/17 08:08:08;;;;;;;18.33;9.32;;;25.40;99.90;;;;;;5086143;28;20301;-74
2023/09/17 08:10:37;;;;;;;15.98;9.32;;;25.70;99.90;;;;;;5071152;28;20285;-73
2023/09/17 08:13:04;;;;;;;22.20;9.25;;;25.50;99.90;;;;;;5075976;28;20727;-72
2023/09/17 08:15:31;;;;;;;23.23;9.55;;;25.40;99.90;;;;;;5087360;28;20669;-72
2023/09/17 08:17:58;;;;;;;27.27;10.02;;;25.30;99.90;;;;;;5088286;28;20672;-73
2023/09/17 08:20:26;;;;;;;18.27;8.63;;;25.40;99.90;;;;;;5079590;28;20234;-76
2023/09/17 08:22:53;;;;;;;22.98;9.93;;;25.40;99.90;;;;;;5081812;28;20291;-73
2023/09/17 08:25:21;;;;;;;22.00;9.52;;;25.40;99.90;;;;;;5077763;28;20677;-73
2023/09/17 08:27:48;;;;;;;26.08;8.93;;;25.60;99.90;;;;;;5070322;28;20312;-71
2023/09/17 08:30:15;;;;;;;21.60;9.05;;;25.70;99.90;;;;;;5070290;28;20651;-72
2023/09/17 08:32:44;;;;;;;26.02;9.73;;;25.80;99.90;;;;;;5069621;28;20198;-72
2023/09/17 08:35:14;;;;;;;18.15;8.27;;;26.00;99.90;;;;;;5071363;28;20246;-73
2023/09/17 08:37:43;;;;;;;17.67;8.65;;;26.10;99.90;;;;;;5070884;28;20206;-69
2023/09/17 08:40:14;;;;;;;24.65;9.35;;;26.00;99.90;;;;;;5071261;28;20329;-73
2023/09/17 08:42:42;;;;;;;21.65;8.55;;;26.20;99.90;;;;;;5070829;28;20221;-70
2023/09/17 08:45:10;;;;;;;21.83;9.43;;;26.20;99.90;;;;;;5070450;28;20210;-70
2023/09/17 08:47:37;;;;;;;18.00;8.20;;;26.20;99.90;;;;;;5068647;28;20240;-71
2023/09/17 08:50:05;;;;;;;23.70;8.98;;;26.10;99.90;;;;;;5069797;28;20289;-72
2023/09/17 08:52:33;;;;;;;17.42;8.80;;;26.30;99.90;;;;;;5069808;28;20237;-72
2023/09/17 08:55:04;;;;;;;21.98;9.57;;;26.40;99.90;;;;;;5069777;28;20691;-72
2023/09/17 08:57:37;;;;;;;17.13;8.30;;;26.50;99.90;;;;;;5070447;28;20198;-72
2023/09/17 09:00:09;;;;;;;17.85;9.60;;;26.40;99.90;;;;;;5070967;28;20652;-73
2023/09/17 09:02:43;;;;;;;19.90;8.32;;;26.70;99.90;;;;;;5070631;28;20583;-72
2023/09/17 09:05:14;;;;;;;23.63;9.32;;;26.90;99.90;;;;;;5070703;28;20293;-72
2023/09/17 09:07:44;;;;;;;19.98;10.18;;;27.00;99.90;;;;;;5070607;28;20207;-72
2023/09/17 09:10:15;;;;;;;20.45;9.55;;;27.20;99.90;;;;;;5070827;28;20206;-69
2023/09/17 09:12:43;;;;;;;19.65;8.85;;;27.30;99.90;;;;;;5070443;28;20297;-72
2023/09/17 09:15:11;;;;;;;20.88;8.65;;;27.20;99.90;;;;;;5070721;28;20297;-72
2023/09/17 09:17:38;;;;;;;16.48;8.23;;;27.10;99.90;;;;;;5070151;28;20212;-74
2023/09/17 09:20:09;;;;;;;19.13;9.43;;;27.00;99.90;;;;;;5070867;28;20244;-73
2023/09/17 09:22:36;;;;;;;18.35;7.70;;;27.10;99.90;;;;;;5070526;28;20202;-73
2023/09/17 09:25:05;;;;;;;21.50;9.27;;;27.30;99.90;;;;;;5070755;28;20297;-73
2023/09/17 09:27:33;;;;;;;16.23;8.65;;;27.20;99.90;;;;;;5070422;28;20335;-72
2023/09/17 09:30:00;;;;;;;22.67;8.70;;;27.10;99.90;;;;;;5070389;28;20242;-73
2023/09/17 09:32:27;;;;;;;16.00;7.93;;;27.10;99.90;;;;;;5070235;28;20697;-73
2023/09/17 09:34:53;;;;;;;19.80;8.27;;;27.30;99.90;;;;;;5070824;28;20288;-73
2023/09/17 09:37:22;;;;;;;13.45;6.38;;;27.60;99.90;;;;;;5070327;28;20256;-72
2023/09/17 09:39:50;;;;;;;18.60;8.52;;;27.70;99.90;;;;;;5073230;28;20222;-71
2023/09/17 09:42:16;;;;;;;18.13;8.07;;;27.90;99.90;;;;;;5090932;28;20372;-73
2023/09/17 09:44:45;;;;;;;20.58;7.95;;;28.40;99.90;;;;;;5090829;28;20287;-73
2023/09/17 09:47:14;;;;;;;22.17;8.30;;;28.40;99.90;;;;;;5090682;28;20245;-72
2023/09/17 09:49:42;;;;;;;14.93;7.35;;;28.50;99.90;;;;;;5090257;28;20212;-70
2023/09/17 09:52:11;;;;;;;24.75;8.57;;;28.80;99.90;;;;;;5090723;28;20232;-74
2023/09/17 09:54:37;;;;;;;19.48;8.30;;;29.10;99.90;;;;;;5090134;28;20296;-69
2023/09/17 09:57:05;;;;;;;23.05;8.38;;;28.70;99.90;;;;;;5090566;28;20238;-72
2023/09/17 09:59:33;;;;;;;16.02;8.32;;;29.00;99.90;;;;;;5092667;28;20244;-70
2023/09/17 10:02:03;;;;;;;21.52;9.05;;;29.30;99.90;;;;;;5094718;28;20292;-72
2023/09/17 10:04:30;;;;;;;13.95;8.13;;;29.50;99.90;;;;;;5093903;28;20205;-72
2023/09/17 10:06:57;;;;;;;20.58;7.60;;;31.50;99.90;;;;;;5094466;28;20294;-71
2023/09/17 10:09:25;;;;;;;16.58;6.57;;;31.20;99.90;;;;;;5093811;28;20196;-72
2023/09/17 10:11:53;;;;;;;15.73;8.00;;;31.50;99.90;;;;;;5094820;28;20205;-72
2023/09/17 10:14:21;;;;;;;13.48;7.50;;;32.30;99.90;;;;;;5094295;28;20247;-68
2023/09/17 10:16:50;;;;;;;13.55;7.72;;;31.20;99.90;;;;;;5094402;28;20718;-73
2023/09/17 10:19:21;;;;;;;16.02;9.13;;;30.40;99.90;;;;;;5094507;28;20312;-72
2023/09/17 10:21:48;;;;;;;18.08;7.85;;;29.30;99.90;;;;;;5094219;28;20287;-69
2023/09/17 10:24:17;;;;;;;18.98;8.43;;;28.80;99.90;;;;;;5094382;28;20233;-72
2023/09/17 10:26:45;;;;;;;17.63;8.00;;;28.70;99.90;;;;;;5094137;28;20258;-70
2023/09/17 10:29:13;;;;;;;19.17;8.27;;;28.30;99.90;;;;;;5094263;28;20550;-72
2023/09/17 10:31:42;;;;;;;17.45;10.40;;;27.60;99.90;;;;;;5090687;28;20206;-70
2023/09/17 10:34:12;;;;;;;16.67;8.43;;;27.70;99.90;;;;;;5073789;28;20237;-71
2023/09/17 10:36:42;;;;;;;20.83;8.57;;;27.60;99.90;;;;;;5072821;28;21000;-72
2023/09/17 10:39:10;;;;;;;14.55;7.63;;;27.50;99.90;;;;;;5073582;28;20202;-72
2023/09/17 10:41:38;;;;;;;18.80;7.80;;;27.50;99.90;;;;;;5073176;28;20198;-72
2023/09/17 10:44:07;;;;;;;19.50;8.02;;;27.50;99.90;;;;;;5073578;28;20292;-72
2023/09/17 10:46:36;;;;;;;22.63;6.80;;;27.40;99.90;;;;;;5073110;28;20237;-72
2023/09/17 10:49:05;;;;;;;24.10;8.18;;;27.40;99.90;;;;;;5073755;28;20202;-72
2023/09/17 10:51:33;;;;;;;18.25;8.80;;;27.40;99.90;;;;;;5072963;28;20658;-71
2023/09/17 10:54:03;;;;;;;17.77;8.02;;;27.30;99.90;;;;;;5073257;28;20301;-73
2023/09/17 10:56:31;;;;;;;16.25;8.80;;;27.60;99.90;;;;;;5073025;28;20229;-71
2023/09/17 10:58:59;;;;;;;17.75;8.63;;;27.70;99.90;;;;;;5079767;28;20288;-73
2023/09/17 11:01:31;;;;;;;22.50;9.25;;;27.70;99.90;;;;;;5083028;28;20202;-78
2023/09/17 11:04:02;;;;;;;22.10;8.60;;;28.00;99.90;;;;;;5072983;28;20640;-75
2023/09/17 11:06:32;;;;;;;30.25;11.90;;;27.70;99.90;;;;;;5082236;28;20201;-74
2023/09/17 11:08:58;;;;;;;15.57;9.18;;;28.00;99.90;;;;;;5092733;28;20212;-68
2023/09/17 11:11:30;;;;;;;19.05;8.27;;;28.10;99.90;;;;;;5091528;28;20304;-70
2023/09/17 11:13:57;;;;;;;21.17;9.30;;;27.70;99.90;;;;;;5093024;28;20645;-71
2023/09/17 11:16:26;;;;;;;19.77;9.65;;;27.70;99.90;;;;;;5090915;28;20289;-71
2023/09/17 11:19:05;;;;;;;19.73;8.48;;;27.30;99.90;;;;;;5091129;28;20898;-70
2023/09/17 11:21:35;;;;;;;25.67;9.13;;;27.50;99.90;;;;;;5090488;28;20220;-73
2023/09/17 11:24:06;;;;;;;25.55;8.80;;;27.80;99.90;;;;;;5091497;28;20232;-67
2023/09/17 11:26:37;;;;;;;20.85;9.25;;;28.10;99.90;;;;;;5090572;28;20305;-67
2023/09/17 11:29:06;;;;;;;25.70;9.27;;;28.20;99.90;;;;;;5090826;28;20680;-67
2023/09/17 11:31:57;;;;;;;17.80;7.68;;;27.90;99.90;;;;;;5092410;28;20201;-71
2023/09/17 11:34:24;;;;;;;19.23;7.80;;;27.50;99.90;;;;;;5092128;28;20223;-66
2023/09/17 11:36:53;;;;;;;23.05;7.85;;;27.50;99.90;;;;;;5092678;28;20288;-67
2023/09/17 11:39:22;;;;;;;20.52;9.07;;;27.70;99.90;;;;;;5092362;28;20198;-67
2023/09/17 11:41:53;;;;;;;25.90;8.80;;;27.60;99.90;;;;;;5092471;28;20244;-68
2023/09/17 11:44:22;;;;;;;23.70;8.52;;;27.60;99.90;;;;;;5092053;28;20586;-72
2023/09/17 11:46:49;;;;;;;24.08;8.40;;;27.90;99.90;;;;;;5092620;28;20295;-68
2023/09/17 11:49:18;;;;;;;21.50;9.68;;;28.00;99.90;;;;;;5092515;28;20211;-68
2023/09/17 11:51:46;;;;;;;31.08;8.80;;;28.10;99.90;;;;;;5086615;28;20688;-67
2023/09/17 11:54:15;;;;;;;28.85;9.57;;;28.10;99.90;;;;;;5072109;28;20256;-67
2023/09/17 11:56:47;;;;;;;22.05;8.30;;;27.90;99.90;;;;;;5071841;28;20212;-68
2023/09/17 11:59:17;;;;;;;22.27;9.45;;;28.20;99.90;;;;;;5072227;28;20206;-73
2023/09/17 12:01:45;;;;;;;25.88;8.50;;;28.50;99.90;;;;;;5071974;28;20255;-74
2023/09/17 12:04:12;;;;;;;32.78;9.43;;;28.50;99.90;;;;;;5071710;28;20256;-75
2023/09/17 12:06:41;;;;;;;26.85;8.82;;;28.60;99.90;;;;;;5071802;28;20724;-73
2023/09/17 12:09:15;;;;;;;20.70;7.88;;;29.00;99.90;;;;;;5071868;28;20301;-67
2023/09/17 12:11:43;;;;;;;21.15;9.07;;;28.70;99.90;;;;;;5071533;28;20564;-68
2023/09/17 12:14:11;;;;;;;21.83;8.68;;;28.30;99.90;;;;;;5071707;28;20296;-74
2023/09/17 12:16:40;;;;;;;17.27;7.63;;;28.40;99.90;;;;;;5071227;28;20330;-74
2023/09/17 12:19:07;;;;;;;22.17;8.60;;;28.10;99.90;;;;;;5071531;28;20245;-73
2023/09/17 12:21:39;;;;;;;22.83;9.40;;;28.10;99.90;;;;;;5070704;28;20731;-75
2023/09/17 12:24:08;;;;;;;31.38;8.88;;;27.80;99.90;;;;;;5071134;28;20233;-74
2023/09/17 12:26:46;;;;;;;26.40;9.38;;;28.10;99.90;;;;;;5071067;28;20198;-73
2023/09/17 12:29:13;;;;;;;24.13;8.02;;;27.70;99.90;;;;;;5071617;28;20202;-68
2023/09/17 12:31:42;;;;;;;22.98;8.52;;;27.80;99.90;;;;;;5071356;28;20300;-74
2023/09/17 12:34:09;;;;;;;22.10;9.07;;;28.10;99.90;;;;;;5070975;28;20761;-74
2023/09/17 12:36:36;;;;;;;23.90;8.90;;;28.10;99.90;;;;;;5070931;28;20241;-75